createdAt,value
2019-05-20T00:00:16.925Z,-161
2019-05-20T00:00:46.882Z,-161
2019-05-20T00:01:16.813Z,-161
2019-05-20T00:01:46.738Z,-162
2019-05-20T00:02:24.627Z,-162
2019-05-20T00:02:46.742Z,-162
2019-05-20T00:03:16.963Z,-160
2019-05-20T00:03:46.984Z,-160
2019-05-20T00:04:16.974Z,-160
2019-05-20T00:04:47.092Z,-161
2019-05-20T00:05:47.058Z,-162
2019-05-20T00:06:16.895Z,-162
2019-05-20T00:06:46.894Z,-161
2019-05-20T00:07:17.066Z,-161
2019-05-20T00:07:47.084Z,-161
2019-05-20T00:08:17.098Z,-159
2019-05-20T00:08:47.310Z,-159
2019-05-20T00:09:17.251Z,-159
2019-05-20T00:09:47.271Z,-159
2019-05-20T00:10:17.095Z,-159
2019-05-20T00:10:47.021Z,-161
2019-05-20T00:11:17.047Z,-160
2019-05-20T00:11:47.056Z,-161
2019-05-20T00:12:17.120Z,-161
2019-05-20T00:12:47.061Z,-160
2019-05-20T00:13:17.068Z,-159
2019-05-20T00:13:47.152Z,-158
2019-05-20T00:14:17.119Z,-158
2019-05-20T00:14:47.080Z,-161
2019-05-20T00:15:17.130Z,-160
2019-05-20T00:15:47.208Z,-161
2019-05-20T00:16:17.262Z,-161
2019-05-20T00:16:47.129Z,-160
2019-05-20T00:17:17.275Z,-159
2019-05-20T00:17:47.193Z,-161
2019-05-20T00:18:17.131Z,-161
2019-05-20T00:18:47.329Z,-159
2019-05-20T00:19:17.235Z,-159
2019-05-20T00:19:47.319Z,-160
2019-05-20T00:20:17.356Z,-161
2019-05-20T00:20:47.418Z,-160
2019-05-20T00:22:17.383Z,-159
2019-05-20T00:22:47.376Z,-159
2019-05-20T00:23:17.447Z,-161
2019-05-20T00:23:47.502Z,-159
2019-05-20T00:24:17.615Z,-157
2019-05-20T00:24:47.596Z,-157
2019-05-20T00:25:17.713Z,-159
2019-05-20T00:26:17.568Z,-158
2019-05-20T00:26:47.703Z,-158
2019-05-20T00:27:17.641Z,-160
2019-05-20T00:27:47.766Z,-160
2019-05-20T00:28:17.753Z,-163
2019-05-20T00:28:47.835Z,-159
2019-05-20T00:29:17.868Z,-159
2019-05-20T00:29:47.827Z,-157
2019-05-20T00:30:17.754Z,-158
2019-05-20T00:30:47.719Z,-157
2019-05-20T00:31:17.724Z,-157
2019-05-20T00:31:47.742Z,-158
2019-05-20T00:32:17.836Z,-157
2019-05-20T00:32:47.891Z,-161
2019-05-20T00:33:17.772Z,-158
2019-05-20T00:33:47.771Z,-158
2019-05-20T00:34:17.913Z,-158
2019-05-20T00:34:47.807Z,-157
2019-05-20T00:35:17.821Z,-157
2019-05-20T00:35:47.827Z,-157
2019-05-20T00:36:17.878Z,-157
2019-05-20T00:36:47.928Z,-159
2019-05-20T00:37:17.982Z,-158
2019-05-20T00:37:48.059Z,-157
2019-05-20T00:38:17.958Z,-158
2019-05-20T00:38:47.993Z,-158
2019-05-20T00:39:17.989Z,-158
2019-05-20T00:39:47.958Z,-158
2019-05-20T00:40:18.060Z,-155
2019-05-20T00:41:48.236Z,-181
2019-05-20T00:42:18.155Z,-156
2019-05-20T00:43:18.151Z,-158
2019-05-20T00:43:48.149Z,-157
2019-05-20T00:44:18.150Z,-154
2019-05-20T00:44:48.216Z,-159
2019-05-20T00:45:18.543Z,-159
2019-05-20T00:45:48.315Z,-157
2019-05-20T00:46:18.354Z,-158
2019-05-20T00:46:48.389Z,-158
2019-05-20T00:51:48.711Z,-157
2019-05-20T00:52:18.672Z,-156
2019-05-20T00:52:48.742Z,-159
2019-05-20T00:54:18.796Z,-159
2019-05-20T00:54:48.792Z,-157
2019-05-20T00:56:48.839Z,-158
2019-05-20T00:57:18.883Z,-158
2019-05-20T00:57:48.887Z,-156
2019-05-20T00:58:18.866Z,-156
2019-05-20T00:58:49.031Z,-155
2019-05-20T00:59:48.925Z,-157
2019-05-20T01:00:19.019Z,-157
2019-05-20T01:00:48.994Z,-160
2019-05-20T01:01:19.005Z,-160
2019-05-20T01:01:49.140Z,-157
2019-05-20T01:04:49.119Z,-161
2019-05-20T01:05:19.161Z,-159
2019-05-20T01:05:49.202Z,-160
2019-05-20T01:06:19.248Z,-158
2019-05-20T01:06:49.424Z,-158
2019-05-20T01:08:49.233Z,-156
2019-05-20T01:12:19.423Z,-159
2019-05-20T01:13:19.457Z,-158
2019-05-20T01:13:49.430Z,-158
2019-05-20T01:14:19.423Z,-158
2019-05-20T01:14:49.498Z,-160
2019-05-20T01:15:19.578Z,-160
2019-05-20T01:15:49.530Z,-159
2019-05-20T01:16:19.459Z,-159
2019-05-20T01:17:19.459Z,-160
2019-05-20T01:18:19.644Z,-157
2019-05-20T01:19:19.681Z,-158
2019-05-20T01:19:49.784Z,-156
2019-05-20T01:20:19.745Z,-158
2019-05-20T01:20:49.805Z,-158
2019-05-20T01:21:19.641Z,-152
2019-05-20T01:21:49.697Z,-155
2019-05-20T01:22:19.898Z,-157
2019-05-20T01:22:49.845Z,-161
2019-05-20T01:23:49.817Z,-161
2019-05-20T01:24:20.017Z,-159
2019-05-20T01:24:49.722Z,-156
2019-05-20T01:25:19.721Z,-154
2019-05-20T01:25:49.742Z,-156
2019-05-20T01:26:20.080Z,-158
2019-05-20T01:26:50.020Z,-158
2019-05-20T01:27:19.935Z,-158
2019-05-20T01:27:49.942Z,-156
2019-05-20T01:28:20.115Z,-156
2019-05-20T01:28:50.011Z,-157
2019-05-20T01:29:20.245Z,-159
2019-05-20T01:29:50.175Z,-156
2019-05-20T01:30:20.291Z,-157
2019-05-20T01:32:20.577Z,-157
2019-05-20T01:33:20.363Z,-157
2019-05-20T01:34:50.389Z,-158
2019-05-20T01:35:20.591Z,-154
2019-05-20T01:36:20.466Z,-156
2019-05-20T01:37:20.394Z,-156
2019-05-20T01:37:50.453Z,-157
2019-05-20T01:38:20.457Z,-154
2019-05-20T01:40:20.098Z,-156
2019-05-20T01:40:50.299Z,-156
2019-05-20T01:41:20.293Z,-155
2019-05-20T01:41:50.185Z,-155
2019-05-20T01:42:20.336Z,-158
2019-05-20T01:42:50.251Z,-156
2019-05-20T01:43:20.463Z,-156
2019-05-20T01:43:50.361Z,-158
2019-05-20T01:44:20.513Z,-157
2019-05-20T01:44:50.543Z,-156
2019-05-20T01:45:20.321Z,-157
2019-05-20T01:45:50.305Z,-157
2019-05-20T01:46:20.455Z,-156
2019-05-20T01:46:50.366Z,-156
2019-05-20T01:47:20.757Z,-156
2019-05-20T01:47:50.709Z,-154
2019-05-20T01:48:20.662Z,-154
2019-05-20T01:48:50.683Z,-157
2019-05-20T01:49:20.564Z,-155
2019-05-20T01:49:50.442Z,-155
2019-05-20T01:50:20.568Z,-156
2019-05-20T01:50:50.571Z,-153
2019-05-20T01:51:20.727Z,-153
2019-05-20T01:52:20.687Z,-155
2019-05-20T01:52:50.677Z,-155
2019-05-20T01:53:20.759Z,-155
2019-05-20T01:53:50.677Z,-153
2019-05-20T01:54:20.690Z,-153
2019-05-20T01:54:50.632Z,-155
2019-05-20T01:55:20.673Z,-155
2019-05-20T01:55:50.616Z,-154
2019-05-20T01:56:20.611Z,-154
2019-05-20T01:56:50.662Z,-157
2019-05-20T01:57:20.689Z,-155
2019-05-20T01:57:50.611Z,-154
2019-05-20T01:58:20.639Z,-154
2019-05-20T01:58:50.740Z,-153
2019-05-20T01:59:20.709Z,-154
2019-05-20T01:59:50.708Z,-155
2019-05-20T02:00:20.911Z,-155
2019-05-20T02:00:50.768Z,-157
2019-05-20T02:01:20.734Z,-156
2019-05-20T02:01:50.769Z,-155
2019-05-20T02:02:20.679Z,-155
2019-05-20T02:02:50.868Z,-155
2019-05-20T02:03:30.784Z,-156
2019-05-20T02:03:50.912Z,-156
2019-05-20T02:04:21.109Z,-154
2019-05-20T02:04:51.028Z,-156
2019-05-20T02:05:20.972Z,-156
2019-05-20T02:05:50.839Z,-155
2019-05-20T02:06:20.850Z,-152
2019-05-20T02:06:50.781Z,-155
2019-05-20T02:07:20.962Z,-155
2019-05-20T02:07:51.094Z,-154
2019-05-20T02:08:20.963Z,-155
2019-05-20T02:08:51.037Z,-152
2019-05-20T02:09:21.081Z,-154
2019-05-20T02:09:51.027Z,-154
2019-05-20T02:10:20.985Z,-154
2019-05-20T02:10:50.973Z,-155
2019-05-20T02:11:21.186Z,-154
2019-05-20T02:11:51.232Z,-155
2019-05-20T02:12:21.377Z,-154
2019-05-20T02:12:51.263Z,-154
2019-05-20T02:13:21.074Z,-150
2019-05-20T02:13:51.157Z,-150
2019-05-20T02:14:21.118Z,-153
2019-05-20T02:14:51.158Z,-153
2019-05-20T02:15:21.228Z,-154
2019-05-20T02:15:51.074Z,-152
2019-05-20T02:16:21.162Z,-156
2019-05-20T02:16:51.329Z,-155
2019-05-20T02:17:21.076Z,-154
2019-05-20T02:17:51.065Z,-154
2019-05-20T02:18:21.258Z,-154
2019-05-20T02:18:51.202Z,-153
2019-05-20T02:19:21.299Z,-152
2019-05-20T02:19:51.321Z,-152
2019-05-20T02:20:21.377Z,-151
2019-05-20T02:20:51.376Z,-151
2019-05-20T02:21:21.210Z,-151
2019-05-20T02:21:51.306Z,-151
2019-05-20T02:22:21.197Z,-151
2019-05-20T02:22:51.238Z,-150
2019-05-20T02:23:21.380Z,-151
2019-05-20T02:23:51.440Z,-150
2019-05-20T02:24:21.491Z,-150
2019-05-20T02:24:51.561Z,-152
2019-05-20T02:25:21.577Z,-150
2019-05-20T02:25:51.384Z,-150
2019-05-20T02:26:21.418Z,-149
2019-05-20T02:26:51.360Z,-149
2019-05-20T02:27:21.437Z,-151
2019-05-20T02:27:51.526Z,-152
2019-05-20T02:28:21.653Z,-152
2019-05-20T02:28:51.648Z,-149
2019-05-20T02:29:21.634Z,-149
2019-05-20T02:29:51.548Z,-151
2019-05-20T02:30:21.455Z,-149
2019-05-20T02:30:51.499Z,-151
2019-05-20T02:31:21.470Z,-151
2019-05-20T02:31:51.747Z,-150
2019-05-20T02:32:21.678Z,-149
2019-05-20T02:32:51.634Z,-149
2019-05-20T02:33:21.772Z,-149
2019-05-20T02:33:52.827Z,-149
2019-05-20T02:34:21.627Z,-151
2019-05-20T02:34:51.625Z,-151
2019-05-20T02:35:21.571Z,-151
2019-05-20T02:35:51.606Z,-151
2019-05-20T02:36:21.571Z,-148
2019-05-20T02:36:51.565Z,-150
2019-05-20T02:37:21.805Z,-149
2019-05-20T02:37:51.627Z,-148
2019-05-20T02:38:21.711Z,-150
2019-05-20T02:38:51.677Z,-149
2019-05-20T02:39:25.598Z,-147
2019-05-20T02:39:51.789Z,-147
2019-05-20T02:40:21.698Z,-148
2019-05-20T02:40:51.787Z,-149
2019-05-20T02:41:21.738Z,-149
2019-05-20T02:41:51.801Z,-155
2019-05-20T02:42:21.874Z,-170
2019-05-20T02:42:51.823Z,-149
2019-05-20T02:43:21.745Z,-146
2019-05-20T02:43:51.969Z,-149
2019-05-20T02:44:21.923Z,-149
2019-05-20T02:44:52.111Z,-147
2019-05-20T02:45:22.012Z,-148
2019-05-20T02:45:51.960Z,-148
2019-05-20T02:46:21.943Z,-147
2019-05-20T02:46:51.997Z,-147
2019-05-20T02:47:21.853Z,-147
2019-05-20T02:47:52.131Z,-147
2019-05-20T02:48:22.262Z,-148
2019-05-20T02:48:52.220Z,-148
2019-05-20T02:49:22.262Z,-146
2019-05-20T02:49:52.346Z,-148
2019-05-20T02:50:22.071Z,-148
2019-05-20T02:50:52.180Z,-145
2019-05-20T02:51:22.128Z,-145
2019-05-20T02:51:52.189Z,-147
2019-05-20T02:52:22.267Z,-146
2019-05-20T02:52:52.369Z,-146
2019-05-20T02:53:22.400Z,-147
2019-05-20T02:53:52.343Z,-147
2019-05-20T02:54:22.213Z,-146
2019-05-20T02:54:52.242Z,-146
2019-05-20T02:55:22.296Z,-148
2019-05-20T02:55:52.285Z,-144
2019-05-20T02:56:22.247Z,-146
2019-05-20T02:56:52.389Z,-146
2019-05-20T02:57:22.241Z,-147
2019-05-20T02:57:52.223Z,-145
2019-05-20T02:58:22.293Z,-145
2019-05-20T02:58:52.496Z,-142
2019-05-20T02:59:22.314Z,-143
2019-05-20T02:59:52.305Z,-143
2019-05-20T03:00:22.367Z,-139
2019-05-20T03:00:52.415Z,-139
2019-05-20T03:01:22.455Z,-143
2019-05-20T03:01:52.408Z,-141
2019-05-20T03:02:22.341Z,-142
2019-05-20T03:02:52.366Z,-142
2019-05-20T03:03:22.359Z,-142
2019-05-20T03:04:09.805Z,-145
2019-05-20T03:04:22.689Z,-145
2019-05-20T03:04:52.804Z,-141
2019-05-20T03:05:22.681Z,-144
2019-05-20T03:05:52.601Z,-144
2019-05-20T03:06:22.557Z,-142
2019-05-20T03:06:52.501Z,-141
2019-05-20T03:07:22.502Z,-141
2019-05-20T03:07:52.516Z,-141
2019-05-20T03:08:22.712Z,-141
2019-05-20T03:08:52.777Z,-142
2019-05-20T03:09:22.791Z,-139
2019-05-20T03:09:52.911Z,-139
2019-05-20T03:10:22.592Z,-142
2019-05-20T03:10:52.603Z,-139
2019-05-20T03:11:22.635Z,-140
2019-05-20T03:11:52.592Z,-141
2019-05-20T03:12:22.736Z,-144
2019-05-20T03:12:52.774Z,-144
2019-05-20T03:13:22.828Z,-142
2019-05-20T03:13:52.932Z,-143
2019-05-20T03:14:22.723Z,-143
2019-05-20T03:14:52.733Z,-141
2019-05-20T03:15:22.774Z,-141
2019-05-20T03:15:52.694Z,-141
2019-05-20T03:16:22.828Z,-144
2019-05-20T03:16:52.710Z,-144
2019-05-20T03:17:22.756Z,-142
2019-05-20T03:17:52.776Z,-144
2019-05-20T03:18:22.761Z,-140
2019-05-20T03:18:52.774Z,-141
2019-05-20T03:19:22.841Z,-141
2019-05-20T03:19:52.850Z,-143
2019-05-20T03:20:22.787Z,-144
2019-05-20T03:20:52.957Z,-144
2019-05-20T03:21:22.915Z,-143
2019-05-20T03:21:52.900Z,-143
2019-05-20T03:22:23.214Z,-144
2019-05-20T03:22:52.888Z,-141
2019-05-20T03:23:22.906Z,-140
2019-05-20T03:23:52.953Z,-142
2019-05-20T03:24:22.942Z,-145
2019-05-20T03:24:52.955Z,-145
2019-05-20T03:25:23.047Z,-144
2019-05-20T03:25:53.225Z,-147
2019-05-20T03:26:23.421Z,-145
2019-05-20T03:26:52.991Z,-145
2019-05-20T03:27:23.009Z,-145
2019-05-20T03:27:53.021Z,-144
2019-05-20T03:28:23.228Z,-145
2019-05-20T03:28:53.204Z,-144
2019-05-20T03:29:23.375Z,-144
2019-05-20T03:42:53.770Z,-144
2019-05-20T03:45:23.735Z,-144
2019-05-20T03:46:23.752Z,-142
2019-05-20T03:46:53.723Z,-144
2019-05-20T03:49:23.740Z,-142
2019-05-20T03:49:53.786Z,-141
2019-05-20T03:50:23.911Z,-146
2019-05-20T03:50:53.801Z,-146
2019-05-20T03:51:23.741Z,-144
2019-05-20T03:51:53.719Z,-139
2019-05-20T03:52:53.726Z,-145
2019-05-20T03:53:23.900Z,-145
2019-05-20T03:53:53.931Z,-144
2019-05-20T03:54:23.977Z,-144
2019-05-20T03:54:53.986Z,-144
2019-05-20T03:55:24.043Z,-144
2019-05-20T03:55:53.885Z,-144
2019-05-20T03:56:23.828Z,-146
2019-05-20T03:56:53.962Z,-143
2019-05-20T03:57:23.827Z,-143
2019-05-20T03:57:53.845Z,-143
2019-05-20T03:58:23.888Z,-132
2019-05-20T03:58:53.877Z,-132
2019-05-20T03:59:24.000Z,-133
2019-05-20T03:59:53.957Z,-131
2019-05-20T04:00:23.939Z,-131
2019-05-20T04:00:53.945Z,-129
2019-05-20T04:01:23.979Z,-129
2019-05-20T04:01:54.100Z,-129
2019-05-20T04:02:23.953Z,-128
2019-05-20T04:02:53.994Z,-129
2019-05-20T04:03:24.079Z,-127
2019-05-20T04:03:53.960Z,-128
2019-05-20T04:04:25.095Z,-129
2019-05-20T04:05:01.727Z,-143
2019-05-20T04:05:23.985Z,-142
2019-05-20T04:05:54.174Z,-133
2019-05-20T04:06:24.148Z,-129
2019-05-20T04:06:54.484Z,-125
2019-05-20T04:07:24.484Z,-123
2019-05-20T04:07:54.156Z,-121
2019-05-20T04:08:24.239Z,-124
2019-05-20T04:08:54.187Z,-122
2019-05-20T04:09:24.284Z,-122
2019-05-20T04:09:54.491Z,-119
2019-05-20T04:10:24.338Z,-118
2019-05-20T04:10:54.358Z,-117
2019-05-20T04:11:24.409Z,-116
2019-05-20T04:11:54.566Z,-117
2019-05-20T04:12:24.364Z,-114
2019-05-20T04:12:54.338Z,-111
2019-05-20T04:13:24.332Z,-115
2019-05-20T04:13:54.489Z,-113
2019-05-20T04:14:24.505Z,-108
2019-05-20T04:14:54.708Z,-110
2019-05-20T04:15:24.703Z,-107
2019-05-20T04:15:54.790Z,-106
2019-05-20T04:16:24.539Z,-106
2019-05-20T04:16:54.556Z,-104
2019-05-20T04:17:24.518Z,-102
2019-05-20T04:17:54.568Z,-99
2019-05-20T04:18:24.533Z,-102
2019-05-20T04:18:54.627Z,-99
2019-05-20T04:19:24.726Z,-99
2019-05-20T04:19:54.612Z,-98
2019-05-20T04:20:24.657Z,-92
2019-05-20T04:20:54.725Z,-100
2019-05-20T04:21:24.580Z,-136
2019-05-20T04:21:54.758Z,-120
2019-05-20T04:22:24.637Z,-119
2019-05-20T04:22:54.784Z,-107
2019-05-20T04:23:24.810Z,-95
2019-05-20T04:23:54.666Z,-95
2019-05-20T04:24:24.724Z,-96
2019-05-20T04:24:54.665Z,-92
2019-05-20T04:25:24.698Z,-94
2019-05-20T04:25:54.821Z,-92
2019-05-20T04:26:24.985Z,-91
2019-05-20T04:26:54.858Z,-89
2019-05-20T04:27:24.908Z,-89
2019-05-20T04:27:54.951Z,-86
2019-05-20T04:28:24.789Z,-86
2019-05-20T04:28:54.872Z,-86
2019-05-20T04:29:24.882Z,-85
2019-05-20T04:29:54.916Z,-82
2019-05-20T04:30:25.002Z,-83
2019-05-20T04:30:55.031Z,-77
2019-05-20T04:31:25.015Z,-77
2019-05-20T04:31:55.191Z,-81
2019-05-20T04:32:24.930Z,-78
2019-05-20T04:32:54.903Z,-77
2019-05-20T04:33:25.112Z,-74
2019-05-20T04:33:54.997Z,-78
2019-05-20T04:34:25.041Z,-80
2019-05-20T04:34:55.077Z,-77
2019-05-20T04:35:25.107Z,-73
2019-05-20T04:35:55.292Z,-77
2019-05-20T04:36:25.092Z,-77
2019-05-20T04:36:55.068Z,-74
2019-05-20T04:37:25.106Z,-74
2019-05-20T04:37:55.073Z,-71
2019-05-20T04:38:25.064Z,-143
2019-05-20T04:38:55.084Z,-117
2019-05-20T04:39:25.154Z,-98
2019-05-20T04:39:55.185Z,-76
2019-05-20T04:40:25.171Z,-75
2019-05-20T04:40:55.267Z,-70
2019-05-20T04:41:25.204Z,-68
2019-05-20T04:41:55.244Z,-87
2019-05-20T04:42:25.378Z,-83
2019-05-20T04:42:55.231Z,-69
2019-05-20T04:43:25.252Z,-67
2019-05-20T04:43:55.312Z,-62
2019-05-20T04:44:25.247Z,-66
2019-05-20T04:44:55.261Z,-63
2019-05-20T04:45:25.320Z,-62
2019-05-20T04:45:55.380Z,-62
2019-05-20T04:46:25.467Z,-63
2019-05-20T04:46:57.798Z,-63
2019-05-20T04:47:25.587Z,-63
2019-05-20T04:47:55.648Z,-58
2019-05-20T04:48:25.584Z,-57
2019-05-20T04:48:55.419Z,-57
2019-05-20T04:49:25.415Z,-57
2019-05-20T04:49:55.621Z,-56
2019-05-20T04:50:25.572Z,-56
2019-05-20T04:50:55.590Z,-55
2019-05-20T04:51:25.663Z,-52
2019-05-20T04:51:55.806Z,-74
2019-05-20T04:52:25.772Z,-72
2019-05-20T04:52:55.611Z,-70
2019-05-20T04:53:25.604Z,-61
2019-05-20T04:53:55.466Z,-57
2019-05-20T04:54:25.669Z,-56
2019-05-20T04:54:55.782Z,-48
2019-05-20T04:55:25.777Z,-49
2019-05-20T04:55:55.748Z,-132
2019-05-20T04:56:29.086Z,-104
2019-05-20T04:56:55.656Z,-59
2019-05-20T04:57:25.677Z,-48
2019-05-20T04:57:55.584Z,-49
2019-05-20T04:58:25.663Z,-47
2019-05-20T04:58:55.792Z,-53
2019-05-20T04:59:25.763Z,-44
2019-05-20T04:59:55.762Z,-44
2019-05-20T05:00:25.797Z,-44
2019-05-20T05:00:55.751Z,-45
2019-05-20T05:01:25.749Z,-43
2019-05-20T05:01:55.771Z,-42
2019-05-20T05:02:25.823Z,-42
2019-05-20T05:02:55.830Z,-43
2019-05-20T05:03:25.872Z,-58
2019-05-20T05:03:55.810Z,-61
2019-05-20T05:04:25.883Z,-53
2019-05-20T05:04:55.806Z,-54
2019-05-20T05:05:37.041Z,-54
2019-05-20T05:05:55.819Z,-58
2019-05-20T05:06:25.907Z,-51
2019-05-20T05:06:56.025Z,-39
2019-05-20T05:07:26.089Z,-38
2019-05-20T05:07:56.259Z,-40
2019-05-20T05:08:26.196Z,-39
2019-05-20T05:08:56.050Z,-36
2019-05-20T05:09:25.971Z,-36
2019-05-20T05:09:56.040Z,-35
2019-05-20T05:10:26.059Z,-33
2019-05-20T05:10:56.245Z,-35
2019-05-20T05:11:26.149Z,-34
2019-05-20T05:11:56.255Z,-37
2019-05-20T05:12:26.283Z,-136
2019-05-20T05:12:56.132Z,-102
2019-05-20T05:13:26.113Z,-71
2019-05-20T05:13:56.104Z,-36
2019-05-20T05:14:26.253Z,-39
2019-05-20T05:14:56.516Z,-30
2019-05-20T05:15:26.287Z,-30
2019-05-20T05:15:56.526Z,-26
2019-05-20T05:16:26.335Z,-38
2019-05-20T05:16:56.245Z,-37
2019-05-20T05:17:26.220Z,-51
2019-05-20T05:17:56.197Z,-50
2019-05-20T05:18:26.349Z,-25
2019-05-20T05:18:56.203Z,-46
2019-05-20T05:19:26.315Z,-37
2019-05-20T05:19:56.214Z,-30
2019-05-20T05:20:26.285Z,-8
2019-05-20T05:20:56.270Z,-4
2019-05-20T05:21:26.269Z,-4
2019-05-20T05:21:56.372Z,3
2019-05-20T05:22:26.346Z,8
2019-05-20T05:22:56.361Z,7
2019-05-20T05:23:26.292Z,6
2019-05-20T05:23:59.041Z,23
2019-05-20T05:24:26.587Z,28
2019-05-20T05:24:56.423Z,33
2019-05-20T05:25:26.367Z,42
2019-05-20T05:25:56.552Z,42
2019-05-20T05:26:26.533Z,43
2019-05-20T05:26:56.585Z,42
2019-05-20T05:27:26.509Z,41
2019-05-20T05:27:56.740Z,39
2019-05-20T05:28:26.608Z,39
2019-05-20T05:28:56.482Z,31
2019-05-20T05:29:26.503Z,-137
2019-05-20T05:29:56.511Z,-87
2019-05-20T05:30:26.585Z,-86
2019-05-20T05:30:56.660Z,-39
2019-05-20T05:31:26.884Z,39
2019-05-20T05:31:56.992Z,38
2019-05-20T05:32:26.590Z,42
2019-05-20T05:32:56.626Z,50
2019-05-20T05:33:26.528Z,46
2019-05-20T05:33:56.612Z,39
2019-05-20T05:34:26.782Z,39
2019-05-20T05:34:56.907Z,45
2019-05-20T05:35:26.753Z,56
2019-05-20T05:35:56.912Z,58
2019-05-20T05:36:26.906Z,58
2019-05-20T05:36:56.842Z,63
2019-05-20T05:37:26.959Z,74
2019-05-20T05:37:56.896Z,80
2019-05-20T05:38:26.779Z,83
2019-05-20T05:38:56.888Z,84
2019-05-20T05:39:26.856Z,88
2019-05-20T05:39:56.985Z,96
2019-05-20T05:40:26.923Z,106
2019-05-20T05:40:56.866Z,111
2019-05-20T05:41:26.853Z,117
2019-05-20T05:41:56.890Z,121
2019-05-20T05:42:27.138Z,121
2019-05-20T05:42:56.994Z,128
2019-05-20T05:43:27.079Z,133
2019-05-20T05:43:57.019Z,146
2019-05-20T05:44:27.003Z,157
2019-05-20T05:44:56.974Z,157
2019-05-20T05:45:29.139Z,173
2019-05-20T05:45:57.170Z,185
2019-05-20T05:46:27.127Z,184
2019-05-20T05:46:57.165Z,194
2019-05-20T05:47:27.410Z,189
2019-05-20T05:47:57.366Z,196
2019-05-20T05:48:27.131Z,201
2019-05-20T05:48:57.136Z,202
2019-05-20T05:49:27.110Z,206
2019-05-20T05:49:57.350Z,199
2019-05-20T05:50:27.245Z,191
2019-05-20T05:50:57.369Z,190
2019-05-20T05:51:27.479Z,195
2019-05-20T05:51:57.392Z,196
2019-05-20T05:52:27.414Z,197
2019-05-20T05:52:57.322Z,204
2019-05-20T05:53:27.228Z,203
2019-05-20T05:53:57.385Z,206
2019-05-20T05:54:27.581Z,205
2019-05-20T05:54:57.454Z,202
2019-05-20T05:55:27.562Z,200
2019-05-20T05:55:57.739Z,198
2019-05-20T05:56:27.445Z,193
2019-05-20T05:56:57.461Z,184
2019-05-20T05:57:27.557Z,154
2019-05-20T05:57:57.419Z,153
2019-05-20T05:58:27.457Z,137
2019-05-20T05:58:57.475Z,128
2019-05-20T05:59:27.447Z,120
2019-05-20T05:59:57.432Z,116
2019-05-20T06:00:27.450Z,111
2019-05-20T06:00:57.511Z,107
2019-05-20T06:01:27.560Z,111
2019-05-20T06:01:57.474Z,113
2019-05-20T06:02:27.500Z,110
2019-05-20T06:02:57.654Z,110
2019-05-20T06:03:27.618Z,116
2019-05-20T06:03:57.760Z,129
2019-05-20T06:04:27.538Z,135
2019-05-20T06:04:57.548Z,144
2019-05-20T06:05:30.901Z,152
2019-05-20T06:06:11.053Z,150
2019-05-20T06:06:27.734Z,160
2019-05-20T06:06:57.778Z,168
2019-05-20T06:07:27.760Z,168
2019-05-20T06:07:57.683Z,172
2019-05-20T06:08:27.649Z,172
2019-05-20T06:08:57.678Z,176
2019-05-20T06:09:27.702Z,179
2019-05-20T06:09:57.736Z,184
2019-05-20T06:10:27.833Z,189
2019-05-20T06:10:57.921Z,197
2019-05-20T06:11:28.026Z,194
2019-05-20T06:11:57.720Z,191
2019-05-20T06:12:27.706Z,191
2019-05-20T06:12:57.807Z,193
2019-05-20T06:13:27.796Z,185
2019-05-20T06:13:57.940Z,182
2019-05-20T06:14:28.036Z,188
2019-05-20T06:14:58.098Z,185
2019-05-20T06:15:28.104Z,182
2019-05-20T06:15:57.885Z,200
2019-05-20T06:16:36.288Z,173
2019-05-20T06:16:57.956Z,160
2019-05-20T06:17:27.855Z,65
2019-05-20T06:17:57.957Z,15
2019-05-20T06:18:27.950Z,3
2019-05-20T06:18:57.993Z,23
2019-05-20T06:19:27.918Z,32
2019-05-20T06:19:57.964Z,31
2019-05-20T06:20:28.242Z,36
2019-05-20T06:20:57.867Z,40
2019-05-20T06:21:28.001Z,44
2019-05-20T06:21:57.976Z,45
2019-05-20T06:22:28.085Z,44
2019-05-20T06:22:58.203Z,51
2019-05-20T06:23:28.204Z,73
2019-05-20T06:23:58.026Z,77
2019-05-20T06:24:28.113Z,105
2019-05-20T06:24:58.079Z,117
2019-05-20T06:25:28.439Z,122
2019-05-20T06:25:58.422Z,133
2019-05-20T06:26:28.354Z,142
2019-05-20T06:26:58.300Z,172
2019-05-20T06:27:28.322Z,173
2019-05-20T06:27:58.247Z,163
2019-05-20T06:28:28.252Z,184
2019-05-20T06:28:58.160Z,174
2019-05-20T06:29:28.197Z,184
2019-05-20T06:29:58.452Z,160
2019-05-20T06:30:28.448Z,149
2019-05-20T06:30:58.603Z,165
2019-05-20T06:31:28.395Z,148
2019-05-20T06:31:58.355Z,167
2019-05-20T06:32:28.294Z,166
2019-05-20T06:32:58.308Z,162
2019-05-20T06:33:28.284Z,154
2019-05-20T06:33:58.536Z,146
2019-05-20T06:34:28.570Z,141
2019-05-20T06:34:58.481Z,109
2019-05-20T06:35:28.535Z,86
2019-05-20T06:35:58.466Z,65
2019-05-20T06:36:28.439Z,53
2019-05-20T06:36:58.362Z,64
2019-05-20T06:37:28.411Z,97
2019-05-20T06:37:58.450Z,92
2019-05-20T06:38:28.725Z,78
2019-05-20T06:38:58.402Z,77
2019-05-20T06:39:28.418Z,67
2019-05-20T06:39:58.423Z,63
2019-05-20T06:40:28.547Z,61
2019-05-20T06:40:58.507Z,68
2019-05-20T06:41:28.475Z,59
2019-05-20T06:41:58.659Z,52
2019-05-20T06:42:28.476Z,16
2019-05-20T06:42:58.663Z,10
2019-05-20T06:43:28.680Z,-6
2019-05-20T06:43:58.643Z,1
2019-05-20T06:44:28.601Z,23
2019-05-20T06:44:58.895Z,23
2019-05-20T06:45:28.628Z,24
2019-05-20T06:45:58.861Z,18
2019-05-20T06:46:28.930Z,13
2019-05-20T06:46:58.877Z,19
2019-05-20T06:47:28.948Z,53
2019-05-20T06:47:59.354Z,45
2019-05-20T06:48:28.782Z,37
2019-05-20T06:48:58.754Z,45
2019-05-20T06:49:28.760Z,40
2019-05-20T06:49:58.966Z,36
2019-05-20T06:50:29.667Z,35
2019-05-20T06:50:59.029Z,34
2019-05-20T06:51:29.164Z,34
2019-05-20T06:51:59.282Z,27
2019-05-20T06:52:35.595Z,35
2019-05-20T06:52:59.073Z,33
2019-05-20T06:53:28.998Z,8
2019-05-20T06:53:58.958Z,-4
2019-05-20T06:54:29.125Z,-1
2019-05-20T06:54:59.281Z,14
2019-05-20T06:55:29.261Z,8
2019-05-20T06:55:59.415Z,11
2019-05-20T06:56:29.133Z,12
2019-05-20T06:56:59.150Z,13
2019-05-20T06:57:29.176Z,22
2019-05-20T06:57:59.049Z,19
2019-05-20T06:58:29.169Z,22
2019-05-20T06:58:59.126Z,17
2019-05-20T06:59:29.162Z,6
2019-05-20T06:59:59.198Z,13
2019-05-20T07:00:29.187Z,3
2019-05-20T07:00:59.221Z,-3
2019-05-20T07:01:29.235Z,-5
2019-05-20T07:01:59.303Z,-18
2019-05-20T07:02:29.301Z,-20
2019-05-20T07:02:59.302Z,-19
2019-05-20T07:03:29.487Z,-17
2019-05-20T07:03:59.310Z,-10
2019-05-20T07:04:29.245Z,-7
2019-05-20T07:04:59.279Z,-15
2019-05-20T07:05:29.270Z,-15
2019-05-20T07:05:59.417Z,-16
2019-05-20T07:06:44.570Z,-16
2019-05-20T07:06:59.546Z,-7
2019-05-20T07:07:29.425Z,1
2019-05-20T07:08:01.261Z,-5
2019-05-20T07:08:29.468Z,1
2019-05-20T07:08:59.555Z,13
2019-05-20T07:09:29.446Z,13
2019-05-20T07:09:59.659Z,-1
2019-05-20T07:10:29.657Z,12
2019-05-20T07:10:59.654Z,16
2019-05-20T07:11:29.587Z,23
2019-05-20T07:11:59.564Z,20
2019-05-20T07:12:40.415Z,16
2019-05-20T07:12:59.562Z,18
2019-05-20T07:13:29.510Z,19
2019-05-20T07:13:59.763Z,14
2019-05-20T07:14:29.879Z,13
2019-05-20T07:14:59.772Z,21
2019-05-20T07:15:29.882Z,11
2019-05-20T07:15:59.745Z,24
2019-05-20T07:16:29.681Z,30
2019-05-20T07:16:59.642Z,46
2019-05-20T07:17:29.721Z,50
2019-05-20T07:17:59.676Z,48
2019-05-20T07:18:29.711Z,46
2019-05-20T07:18:59.783Z,39
2019-05-20T07:19:29.733Z,37
2019-05-20T07:19:59.894Z,35
2019-05-20T07:20:29.720Z,37
2019-05-20T07:20:59.716Z,41
2019-05-20T07:21:29.758Z,38
2019-05-20T07:21:59.830Z,37
2019-05-20T07:22:29.916Z,40
2019-05-20T07:22:59.831Z,23
2019-05-20T07:23:29.877Z,42
2019-05-20T07:23:59.925Z,53
2019-05-20T07:24:29.810Z,48
2019-05-20T07:24:59.805Z,76
2019-05-20T07:25:30.269Z,94
2019-05-20T07:26:00.060Z,109
2019-05-20T07:26:30.018Z,107
2019-05-20T07:27:00.099Z,113
2019-05-20T07:27:29.995Z,106
2019-05-20T07:28:00.000Z,101
2019-05-20T07:28:29.910Z,94
2019-05-20T07:29:00.019Z,98
2019-05-20T07:29:30.126Z,96
2019-05-20T07:30:00.097Z,106
2019-05-20T07:30:30.225Z,107
2019-05-20T07:31:00.348Z,116
2019-05-20T07:31:30.039Z,116
2019-05-20T07:32:00.010Z,121
2019-05-20T07:32:30.055Z,124
2019-05-20T07:33:00.001Z,108